createdAt,value
2016-12-23T00:00:20.301Z,0
2016-12-23T00:01:00.830Z,0
2016-12-23T00:01:41.357Z,0
2016-12-23T00:02:21.888Z,0
2016-12-23T00:03:02.414Z,0
2016-12-23T00:03:42.946Z,0
2016-12-23T00:04:23.478Z,0
2016-12-23T00:05:04.007Z,0
2016-12-23T00:05:44.534Z,0
2016-12-23T00:06:25.064Z,0
2016-12-23T00:07:05.608Z,0
2016-12-23T00:07:46.143Z,0
2016-12-23T00:08:26.671Z,0
2016-12-23T00:09:07.200Z,0
2016-12-23T00:09:47.743Z,0
2016-12-23T00:10:28.263Z,0
2016-12-23T00:11:08.800Z,0
2016-12-23T00:11:49.330Z,0
2016-12-23T00:12:29.859Z,0
2016-12-23T00:13:10.392Z,0
2016-12-23T00:13:50.920Z,0
2016-12-23T00:14:31.451Z,0
2016-12-23T00:15:11.988Z,0
2016-12-23T00:15:52.510Z,0
2016-12-23T00:16:33.051Z,0
2016-12-23T00:17:13.577Z,0
2016-12-23T00:17:54.111Z,0
2016-12-23T00:18:34.640Z,0
2016-12-23T00:19:15.178Z,0
2016-12-23T00:19:55.717Z,0
2016-12-23T00:20:36.248Z,0
2016-12-23T00:21:16.780Z,0
2016-12-23T00:21:57.313Z,0
2016-12-23T00:22:37.843Z,0
2016-12-23T00:23:18.377Z,0
2016-12-23T00:23:58.919Z,0
2016-12-23T00:24:39.450Z,0
2016-12-23T00:25:19.978Z,0
2016-12-23T00:26:00.516Z,0
2016-12-23T00:26:41.031Z,0
2016-12-23T00:27:21.557Z,0
2016-12-23T00:28:02.076Z,0
2016-12-23T00:28:42.603Z,0
2016-12-23T00:29:23.132Z,0
2016-12-23T00:30:03.663Z,0
2016-12-23T00:30:44.197Z,0
2016-12-23T00:31:24.724Z,0
2016-12-23T00:32:05.275Z,0
2016-12-23T00:32:45.809Z,0
2016-12-23T00:33:26.335Z,0
2016-12-23T00:34:06.865Z,0
2016-12-23T00:34:47.389Z,0
2016-12-23T00:35:27.923Z,0
2016-12-23T00:36:08.453Z,0
2016-12-23T00:36:48.986Z,0
2016-12-23T00:37:29.526Z,0
2016-12-23T00:38:10.071Z,0
2016-12-23T00:38:50.597Z,0
2016-12-23T00:39:31.127Z,0
2016-12-23T00:40:11.662Z,0
2016-12-23T00:40:52.194Z,0
2016-12-23T00:41:32.724Z,0
2016-12-23T00:42:13.266Z,0
2016-12-23T00:42:53.808Z,0
2016-12-23T00:43:34.347Z,0
2016-12-23T00:44:14.875Z,0
2016-12-23T00:44:55.404Z,0
2016-12-23T00:45:35.936Z,0
2016-12-23T00:46:16.463Z,0
2016-12-23T00:46:56.999Z,0
2016-12-23T00:47:37.524Z,0
2016-12-23T00:48:18.062Z,0
2016-12-23T00:48:58.599Z,0
2016-12-23T00:49:39.137Z,0
2016-12-23T00:50:19.670Z,0
2016-12-23T00:51:00.204Z,0
2016-12-23T00:51:40.725Z,0
2016-12-23T00:52:21.254Z,0
2016-12-23T00:53:01.785Z,0
2016-12-23T00:53:42.318Z,0
2016-12-23T00:54:22.847Z,0
2016-12-23T00:55:03.382Z,0
2016-12-23T00:55:43.915Z,0
2016-12-23T00:56:24.449Z,0
2016-12-23T00:57:04.979Z,0
2016-12-23T00:57:45.516Z,0
2016-12-23T00:58:26.051Z,0
2016-12-23T00:59:06.590Z,0
2016-12-23T00:59:47.128Z,0
2016-12-23T01:00:27.665Z,0
2016-12-23T01:01:08.198Z,0
2016-12-23T01:01:48.737Z,0
2016-12-23T01:02:29.269Z,0
2016-12-23T01:03:09.803Z,0
2016-12-23T01:03:50.343Z,0
2016-12-23T01:04:30.867Z,0
2016-12-23T01:05:11.411Z,0
2016-12-23T01:05:51.946Z,0
2016-12-23T01:06:32.484Z,0
2016-12-23T01:07:13.021Z,0
2016-12-23T01:07:53.553Z,0
2016-12-23T01:08:34.091Z,0
2016-12-23T01:09:14.627Z,0
2016-12-23T01:09:55.164Z,0
2016-12-23T01:10:35.697Z,0
2016-12-23T01:11:16.222Z,0
2016-12-23T01:11:56.756Z,0
2016-12-23T01:12:37.287Z,0
2016-12-23T01:13:17.828Z,0
2016-12-23T01:13:58.361Z,0
2016-12-23T01:14:38.897Z,0
2016-12-23T01:15:19.429Z,0
2016-12-23T01:15:59.958Z,0
2016-12-23T01:16:40.468Z,0
2016-12-23T01:17:21.001Z,0
2016-12-23T01:18:01.535Z,0
2016-12-23T01:18:42.067Z,0
2016-12-23T01:19:22.599Z,0
2016-12-23T01:20:03.133Z,0
2016-12-23T01:20:43.658Z,0
2016-12-23T01:21:24.190Z,0
2016-12-23T01:22:04.723Z,0
2016-12-23T01:22:45.267Z,0
2016-12-23T01:23:25.802Z,0
2016-12-23T01:24:06.343Z,0
2016-12-23T01:24:46.854Z,0
2016-12-23T01:25:27.387Z,0
2016-12-23T01:26:07.921Z,0
2016-12-23T01:26:48.453Z,0
2016-12-23T01:27:28.987Z,0
2016-12-23T01:28:09.513Z,0
2016-12-23T01:28:50.045Z,0
2016-12-23T01:29:30.574Z,0
2016-12-23T01:30:11.103Z,0
2016-12-23T01:30:51.637Z,0
2016-12-23T01:31:32.163Z,0
2016-12-23T01:32:12.708Z,0
2016-12-23T01:32:53.231Z,0
2016-12-23T01:33:33.769Z,0
2016-12-23T01:34:14.301Z,0
2016-12-23T01:34:54.831Z,0
2016-12-23T01:35:35.365Z,0
2016-12-23T01:36:15.903Z,0
2016-12-23T01:36:56.438Z,0
2016-12-23T01:37:36.975Z,0
2016-12-23T01:38:17.509Z,0
2016-12-23T01:38:58.041Z,0
2016-12-23T01:39:38.575Z,0
2016-12-23T01:40:19.112Z,0
2016-12-23T01:40:59.639Z,0
2016-12-23T01:41:40.170Z,0
2016-12-23T01:42:20.708Z,0
2016-12-23T01:43:01.245Z,0
2016-12-23T01:43:41.775Z,0
2016-12-23T01:44:22.299Z,0
2016-12-23T01:45:02.830Z,0
2016-12-23T01:45:43.361Z,0
2016-12-23T01:46:23.890Z,0
2016-12-23T01:47:04.425Z,0
2016-12-23T01:47:44.962Z,0
2016-12-23T01:48:25.490Z,0
2016-12-23T01:49:06.021Z,0
2016-12-23T01:49:46.563Z,0
2016-12-23T01:50:27.102Z,0
2016-12-23T01:51:07.638Z,0
2016-12-23T01:51:48.165Z,0
2016-12-23T01:52:28.695Z,0
2016-12-23T01:53:09.227Z,0
2016-12-23T01:53:49.757Z,0
2016-12-23T01:54:30.289Z,0
2016-12-23T01:55:10.833Z,0
2016-12-23T01:55:51.367Z,0
2016-12-23T01:56:31.903Z,0
2016-12-23T01:57:12.432Z,0
2016-12-23T01:57:52.952Z,0
2016-12-23T01:58:33.496Z,0
2016-12-23T01:59:14.019Z,0
2016-12-23T01:59:54.562Z,0
2016-12-23T02:00:35.092Z,0
2016-12-23T02:01:15.628Z,0
2016-12-23T02:01:56.175Z,0
2016-12-23T02:02:36.706Z,0
2016-12-23T02:03:17.241Z,0
2016-12-23T02:03:57.790Z,0
2016-12-23T02:04:38.314Z,0
2016-12-23T02:05:18.844Z,0
2016-12-23T02:05:59.377Z,0
2016-12-23T02:06:39.911Z,0
2016-12-23T02:07:20.445Z,0
2016-12-23T02:08:00.982Z,0
2016-12-23T02:08:41.511Z,0
2016-12-23T02:09:22.043Z,0
2016-12-23T02:10:02.580Z,0
2016-12-23T02:10:43.115Z,0
2016-12-23T02:11:23.640Z,0
2016-12-23T02:12:04.175Z,0
2016-12-23T02:12:44.716Z,0
2016-12-23T02:13:25.253Z,0
2016-12-23T02:14:05.799Z,0
2016-12-23T02:14:46.332Z,0
2016-12-23T02:15:26.861Z,0
2016-12-23T02:16:07.390Z,0
2016-12-23T02:16:47.924Z,0
2016-12-23T02:17:28.460Z,0
2016-12-23T02:18:08.992Z,0
2016-12-23T02:18:49.532Z,0
2016-12-23T02:19:30.062Z,0
2016-12-23T02:20:10.595Z,0
2016-12-23T02:20:51.117Z,0
2016-12-23T02:21:31.640Z,0
2016-12-23T02:22:12.174Z,0
2016-12-23T02:22:52.710Z,0
2016-12-23T02:23:33.240Z,0
2016-12-23T02:24:13.777Z,0
2016-12-23T02:24:54.314Z,0
2016-12-23T02:25:34.840Z,0
2016-12-23T02:26:15.382Z,0
2016-12-23T02:26:55.908Z,0
2016-12-23T02:27:36.435Z,0
2016-12-23T02:28:16.965Z,0
2016-12-23T02:28:57.490Z,0
2016-12-23T02:29:38.029Z,0
2016-12-23T02:30:18.558Z,0
2016-12-23T02:30:59.091Z,0
2016-12-23T02:31:39.622Z,0
2016-12-23T02:32:20.165Z,0
2016-12-23T02:33:00.696Z,0
2016-12-23T02:33:41.225Z,0
2016-12-23T02:34:21.759Z,0
2016-12-23T02:35:02.300Z,0
2016-12-23T02:35:42.833Z,0
2016-12-23T02:36:23.367Z,0
2016-12-23T02:37:03.895Z,0
2016-12-23T02:37:44.436Z,0
2016-12-23T02:38:24.959Z,0
2016-12-23T02:39:05.481Z,0
2016-12-23T02:39:46.010Z,0
2016-12-23T02:40:26.538Z,0
2016-12-23T02:41:07.079Z,0
2016-12-23T02:41:47.600Z,0
2016-12-23T02:42:28.140Z,0
2016-12-23T02:43:08.668Z,0
2016-12-23T02:43:49.211Z,0
2016-12-23T02:44:29.739Z,0
2016-12-23T02:45:10.283Z,0
2016-12-23T02:45:50.809Z,0
2016-12-23T02:46:31.348Z,0
2016-12-23T02:47:11.885Z,0
2016-12-23T02:47:52.418Z,0
2016-12-23T02:48:32.959Z,0
2016-12-23T02:49:13.480Z,0
2016-12-23T02:49:54.016Z,0
2016-12-23T02:50:34.552Z,0
2016-12-23T02:51:15.092Z,0
2016-12-23T02:51:55.603Z,0
2016-12-23T02:52:36.138Z,0
2016-12-23T02:53:16.667Z,0
2016-12-23T02:53:57.199Z,0
2016-12-23T02:54:37.722Z,0
2016-12-23T02:55:18.263Z,0
2016-12-23T02:55:58.788Z,0
2016-12-23T02:56:39.325Z,0
2016-12-23T02:57:19.855Z,0
2016-12-23T02:58:00.390Z,0
2016-12-23T02:58:40.926Z,0
2016-12-23T02:59:21.460Z,0
2016-12-23T03:00:01.992Z,0
2016-12-23T03:00:42.507Z,0
2016-12-23T03:01:23.023Z,0
2016-12-23T03:02:03.555Z,0
2016-12-23T03:02:44.088Z,0
2016-12-23T03:03:24.623Z,0
2016-12-23T03:04:05.154Z,0
2016-12-23T03:04:45.696Z,0
2016-12-23T03:05:26.214Z,0
2016-12-23T03:06:06.751Z,0
2016-12-23T03:06:47.291Z,0
2016-12-23T03:07:27.807Z,0
2016-12-23T03:08:08.356Z,0
2016-12-23T03:08:48.898Z,0
2016-12-23T03:09:29.422Z,0
2016-12-23T03:10:09.966Z,0
2016-12-23T03:10:50.492Z,0
2016-12-23T03:11:31.011Z,0
2016-12-23T03:12:11.552Z,0
2016-12-23T03:12:52.079Z,0
2016-12-23T03:13:32.639Z,0
2016-12-23T03:14:13.140Z,0
2016-12-23T03:14:53.672Z,0
2016-12-23T03:15:34.202Z,0
2016-12-23T03:16:14.734Z,0
2016-12-23T03:16:55.266Z,0
2016-12-23T03:17:35.817Z,0
2016-12-23T03:18:16.336Z,0
2016-12-23T03:18:56.871Z,0
2016-12-23T03:19:37.402Z,0
2016-12-23T03:20:17.929Z,0
2016-12-23T03:20:58.456Z,0
2016-12-23T03:21:38.994Z,0
2016-12-23T03:22:19.512Z,0
2016-12-23T03:23:00.045Z,0
2016-12-23T03:23:40.574Z,0
2016-12-23T03:24:21.113Z,0
2016-12-23T03:25:01.639Z,0
2016-12-23T03:25:42.159Z,0
2016-12-23T03:26:22.698Z,0
2016-12-23T03:27:03.233Z,0
2016-12-23T03:27:43.758Z,0
2016-12-23T03:28:24.286Z,0
2016-12-23T03:29:04.822Z,0
2016-12-23T03:29:45.352Z,0
2016-12-23T03:30:25.894Z,0
2016-12-23T03:31:06.415Z,0
2016-12-23T03:31:46.939Z,0
2016-12-23T03:32:27.484Z,0
2016-12-23T03:33:08.013Z,0
2016-12-23T03:33:48.546Z,0
2016-12-23T03:34:29.082Z,0
2016-12-23T03:35:09.619Z,0
2016-12-23T03:35:50.143Z,0
2016-12-23T03:36:30.681Z,0
2016-12-23T03:37:11.206Z,0
2016-12-23T03:37:51.745Z,0
2016-12-23T03:38:32.272Z,0
2016-12-23T03:39:12.799Z,0
2016-12-23T03:39:53.317Z,0
2016-12-23T03:40:33.840Z,0
2016-12-23T03:41:14.350Z,0
2016-12-23T03:41:54.883Z,0
2016-12-23T03:42:35.414Z,0
2016-12-23T03:43:15.942Z,0
2016-12-23T03:43:56.470Z,0
2016-12-23T03:44:37.010Z,0
2016-12-23T03:45:17.543Z,0
2016-12-23T03:45:58.080Z,0
2016-12-23T03:46:38.619Z,0
2016-12-23T03:47:19.146Z,0
2016-12-23T03:47:59.686Z,0
2016-12-23T03:48:40.219Z,0
2016-12-23T03:49:20.747Z,0
2016-12-23T03:50:01.282Z,0
2016-12-23T03:50:41.806Z,0
2016-12-23T03:51:22.342Z,0
2016-12-23T03:52:02.865Z,0
2016-12-23T03:52:43.394Z,0
2016-12-23T03:53:23.926Z,0
2016-12-23T03:54:04.446Z,0
2016-12-23T03:54:44.991Z,0
2016-12-23T03:55:25.518Z,0
2016-12-23T03:56:06.043Z,0
2016-12-23T03:56:46.579Z,0
2016-12-23T03:57:27.118Z,0
2016-12-23T03:58:07.647Z,0
2016-12-23T03:58:48.179Z,0
2016-12-23T03:59:28.713Z,0
2016-12-23T04:00:09.243Z,0
2016-12-23T04:00:49.760Z,0
2016-12-23T04:01:30.305Z,0
2016-12-23T04:02:10.821Z,0
2016-12-23T04:02:51.364Z,0
2016-12-23T04:03:31.902Z,0
2016-12-23T04:04:12.432Z,0
2016-12-23T04:04:52.962Z,0
2016-12-23T04:05:33.494Z,0
2016-12-23T04:06:14.021Z,0
2016-12-23T04:06:54.550Z,0
2016-12-23T04:07:35.089Z,0
2016-12-23T04:08:15.623Z,0
2016-12-23T04:08:56.145Z,0
2016-12-23T04:09:36.683Z,0
2016-12-23T04:10:17.210Z,0
2016-12-23T04:10:57.731Z,0
2016-12-23T04:11:38.272Z,0
2016-12-23T04:12:18.796Z,0
2016-12-23T04:12:59.340Z,0
2016-12-23T04:13:39.865Z,0
2016-12-23T04:14:20.381Z,0
2016-12-23T04:15:00.910Z,0
2016-12-23T04:15:41.440Z,0
2016-12-23T04:16:21.969Z,0
2016-12-23T04:17:02.522Z,0
2016-12-23T04:17:43.051Z,0
2016-12-23T04:18:23.580Z,0
2016-12-23T04:19:04.104Z,0
2016-12-23T04:19:44.639Z,0
2016-12-23T04:20:25.167Z,0
2016-12-23T04:21:05.692Z,0
2016-12-23T04:21:46.227Z,0
2016-12-23T04:22:26.760Z,0
2016-12-23T04:23:07.295Z,0
2016-12-23T04:23:47.853Z,0
2016-12-23T04:24:28.388Z,0
2016-12-23T04:25:08.919Z,0
2016-12-23T04:25:49.456Z,0
2016-12-23T04:26:29.987Z,0
2016-12-23T04:27:10.512Z,0
2016-12-23T04:27:51.038Z,0
2016-12-23T04:28:31.568Z,0
2016-12-23T04:29:12.113Z,0
2016-12-23T04:29:52.648Z,0
2016-12-23T04:30:33.173Z,0
2016-12-23T04:31:13.704Z,0
2016-12-23T04:31:54.233Z,0
2016-12-23T04:32:34.762Z,0
2016-12-23T04:33:15.290Z,0
2016-12-23T04:33:55.830Z,0
2016-12-23T04:34:36.353Z,0
2016-12-23T04:35:16.893Z,0
2016-12-23T04:35:57.439Z,0
2016-12-23T04:36:37.968Z,0
2016-12-23T04:37:18.494Z,0
2016-12-23T04:37:59.031Z,0
2016-12-23T04:38:39.557Z,0
2016-12-23T04:39:20.090Z,0
2016-12-23T04:40:00.627Z,0
2016-12-23T04:40:41.154Z,0
2016-12-23T04:41:21.694Z,0
2016-12-23T04:42:02.231Z,0
2016-12-23T04:42:42.764Z,0
2016-12-23T04:43:23.298Z,0
2016-12-23T04:44:03.828Z,0
2016-12-23T04:44:44.373Z,0
2016-12-23T04:45:24.920Z,0
2016-12-23T04:46:05.437Z,0
2016-12-23T04:46:45.960Z,0
2016-12-23T04:47:26.494Z,0
2016-12-23T04:48:07.032Z,0
2016-12-23T04:48:47.561Z,0
2016-12-23T04:49:28.089Z,0
2016-12-23T04:50:08.623Z,0
2016-12-23T04:50:49.158Z,0
2016-12-23T04:51:29.692Z,0
2016-12-23T04:52:10.212Z,0
2016-12-23T04:52:50.747Z,0
2016-12-23T04:53:31.276Z,0
2016-12-23T04:54:11.804Z,0
2016-12-23T04:54:52.335Z,0
2016-12-23T04:55:32.864Z,0
2016-12-23T04:56:13.403Z,0
2016-12-23T04:56:53.941Z,0
2016-12-23T04:57:34.473Z,0
2016-12-23T04:58:15.005Z,0
2016-12-23T04:58:55.533Z,0
2016-12-23T04:59:36.061Z,0
2016-12-23T05:00:16.585Z,0
2016-12-23T05:00:57.120Z,0
2016-12-23T05:01:37.648Z,0
2016-12-23T05:02:18.176Z,0
2016-12-23T05:02:58.709Z,0
2016-12-23T05:03:39.250Z,0
2016-12-23T05:04:19.781Z,0
2016-12-23T05:05:00.311Z,0
2016-12-23T05:05:40.841Z,0
2016-12-23T05:06:21.365Z,0
2016-12-23T05:07:01.900Z,0
2016-12-23T05:07:42.436Z,0
2016-12-23T05:08:23.018Z,0
2016-12-23T05:09:03.558Z,0
2016-12-23T05:09:44.088Z,0
2016-12-23T05:10:24.615Z,0
2016-12-23T05:11:05.147Z,0
2016-12-23T05:11:45.684Z,0
2016-12-23T05:12:26.217Z,0
2016-12-23T05:13:06.749Z,0
2016-12-23T05:13:47.289Z,0
2016-12-23T05:14:27.821Z,0
2016-12-23T05:15:08.347Z,0
2016-12-23T05:15:48.883Z,0
2016-12-23T05:16:29.419Z,0
2016-12-23T05:17:09.950Z,0
2016-12-23T05:17:50.479Z,0
2016-12-23T05:18:31.021Z,0
2016-12-23T05:19:11.542Z,0
2016-12-23T05:19:52.084Z,0
2016-12-23T05:20:32.617Z,0
2016-12-23T05:21:13.157Z,0
2016-12-23T05:21:53.690Z,0
2016-12-23T05:22:34.220Z,0
2016-12-23T05:23:14.753Z,0
2016-12-23T05:23:55.295Z,0
2016-12-23T05:24:35.823Z,0
2016-12-23T05:25:16.347Z,0
2016-12-23T05:25:56.888Z,0
2016-12-23T05:26:37.427Z,0
2016-12-23T05:27:17.960Z,0
2016-12-23T05:27:58.495Z,0
2016-12-23T05:28:39.022Z,0
2016-12-23T05:29:19.558Z,0
2016-12-23T05:30:00.084Z,0
2016-12-23T05:30:40.621Z,0
2016-12-23T05:31:21.152Z,0
2016-12-23T05:32:01.694Z,0
2016-12-23T05:32:42.225Z,0
2016-12-23T05:33:22.756Z,0
2016-12-23T05:34:03.291Z,0
2016-12-23T05:34:43.823Z,0
2016-12-23T05:35:24.347Z,0
2016-12-23T05:36:04.875Z,0
2016-12-23T05:36:45.408Z,0
2016-12-23T05:37:25.937Z,0
2016-12-23T05:38:06.469Z,0
2016-12-23T05:38:47.001Z,0
2016-12-23T05:39:27.541Z,0
2016-12-23T05:40:08.069Z,0
2016-12-23T05:40:48.592Z,0
2016-12-23T05:41:29.126Z,0
2016-12-23T05:42:09.657Z,0
2016-12-23T05:42:50.200Z,0
2016-12-23T05:43:30.733Z,0
2016-12-23T05:44:11.269Z,0
2016-12-23T05:44:51.802Z,0
2016-12-23T05:45:32.339Z,0
2016-12-23T05:46:12.860Z,0
2016-12-23T05:46:53.389Z,0
2016-12-23T05:47:33.923Z,0
2016-12-23T05:48:14.453Z,0
2016-12-23T05:48:54.989Z,0
2016-12-23T05:49:35.518Z,0
2016-12-23T05:50:16.054Z,0
2016-12-23T05:50:56.602Z,0
2016-12-23T05:51:37.140Z,0
2016-12-23T05:52:17.668Z,0
2016-12-23T05:52:58.205Z,0
2016-12-23T05:53:38.756Z,0
2016-12-23T05:54:19.286Z,0
2016-12-23T05:54:59.818Z,0
2016-12-23T05:55:40.352Z,0
2016-12-23T05:56:20.886Z,0
2016-12-23T05:57:01.435Z,0
2016-12-23T05:57:41.963Z,0
2016-12-23T05:58:22.493Z,0
2016-12-23T05:59:03.033Z,0
2016-12-23T05:59:43.558Z,0
2016-12-23T06:00:24.087Z,0
2016-12-23T06:01:04.625Z,0
2016-12-23T06:01:45.149Z,0
2016-12-23T06:02:25.678Z,0
2016-12-23T06:03:06.205Z,0
2016-12-23T06:03:46.740Z,0
2016-12-23T06:04:27.277Z,0
2016-12-23T06:05:07.813Z,0
2016-12-23T06:05:48.340Z,0
2016-12-23T06:06:28.873Z,0
2016-12-23T06:07:09.408Z,0
2016-12-23T06:07:49.935Z,0
2016-12-23T06:08:30.481Z,0
2016-12-23T06:09:11.004Z,0
2016-12-23T06:09:51.540Z,0
2016-12-23T06:10:32.071Z,0
2016-12-23T06:11:12.604Z,0
2016-12-23T06:11:53.139Z,0
2016-12-23T06:12:33.660Z,0
2016-12-23T06:13:14.194Z,0
2016-12-23T06:13:54.733Z,0
2016-12-23T06:14:35.264Z,0
2016-12-23T06:15:15.793Z,0
2016-12-23T06:15:56.331Z,0
2016-12-23T06:16:36.858Z,0
2016-12-23T06:17:17.390Z,0
2016-12-23T06:17:57.917Z,0
2016-12-23T06:18:38.447Z,0
2016-12-23T06:19:18.988Z,0
2016-12-23T06:19:59.517Z,0
2016-12-23T06:20:40.053Z,0
2016-12-23T06:21:20.590Z,0
2016-12-23T06:22:01.115Z,0
2016-12-23T06:22:41.644Z,0
2016-12-23T06:23:22.195Z,0
2016-12-23T06:24:02.739Z,0
2016-12-23T06:24:43.268Z,0
2016-12-23T06:25:23.796Z,0
2016-12-23T06:26:04.319Z,0
2016-12-23T06:26:44.854Z,0
2016-12-23T06:27:25.378Z,0
2016-12-23T06:28:05.905Z,0
2016-12-23T06:28:46.443Z,0
2016-12-23T06:29:26.981Z,0
2016-12-23T06:30:07.509Z,0
2016-12-23T06:30:48.044Z,0
2016-12-23T06:31:28.578Z,0
2016-12-23T06:32:09.117Z,0
2016-12-23T06:32:49.646Z,0
2016-12-23T06:33:30.177Z,0
2016-12-23T06:34:10.699Z,0
2016-12-23T06:34:51.227Z,0
2016-12-23T06:35:31.768Z,0
2016-12-23T06:36:12.292Z,0
2016-12-23T06:36:52.834Z,0
2016-12-23T06:37:33.363Z,0
2016-12-23T06:38:13.897Z,0
2016-12-23T06:38:54.431Z,0
2016-12-23T06:39:34.967Z,0
2016-12-23T06:40:15.491Z,0
2016-12-23T06:40:56.025Z,0
2016-12-23T06:41:36.559Z,0
2016-12-23T06:42:17.085Z,0
2016-12-23T06:42:57.616Z,0
2016-12-23T06:43:38.149Z,0
2016-12-23T06:44:18.687Z,0
2016-12-23T06:44:59.221Z,0
2016-12-23T06:45:39.745Z,0
2016-12-23T06:46:20.281Z,0
2016-12-23T06:47:00.819Z,0
2016-12-23T06:47:41.353Z,0
2016-12-23T06:48:21.886Z,0
2016-12-23T06:49:02.411Z,0
2016-12-23T06:49:42.947Z,0
2016-12-23T06:50:23.488Z,0
2016-12-23T06:51:04.017Z,0
2016-12-23T06:51:44.537Z,0
2016-12-23T06:52:25.063Z,0
2016-12-23T06:53:05.601Z,0
2016-12-23T06:53:46.129Z,0
2016-12-23T06:54:26.662Z,0
2016-12-23T06:55:07.192Z,0
2016-12-23T06:55:47.709Z,0
2016-12-23T06:56:28.243Z,0
2016-12-23T06:57:08.775Z,0
2016-12-23T06:57:49.312Z,0
2016-12-23T06:58:29.842Z,0
2016-12-23T06:59:10.378Z,0
2016-12-23T06:59:50.911Z,0
2016-12-23T07:00:31.435Z,0
2016-12-23T07:01:11.972Z,0
2016-12-23T07:01:52.505Z,0
2016-12-23T07:02:33.041Z,0
2016-12-23T07:03:13.577Z,0
2016-12-23T07:03:54.107Z,0
2016-12-23T07:04:34.636Z,0
2016-12-23T07:05:15.168Z,0
2016-12-23T07:05:55.705Z,0
2016-12-23T07:06:36.241Z,0
2016-12-23T07:07:16.764Z,0
2016-12-23T07:07:57.306Z,0
2016-12-23T07:08:37.834Z,0
2016-12-23T07:09:18.366Z,0
2016-12-23T07:09:58.893Z,0
2016-12-23T07:10:39.497Z,0
2016-12-23T07:11:20.032Z,0
2016-12-23T07:12:00.567Z,0
2016-12-23T07:12:41.094Z,0
2016-12-23T07:13:21.633Z,0
2016-12-23T07:14:02.172Z,0
2016-12-23T07:14:42.711Z,0
2016-12-23T07:15:23.246Z,0
2016-12-23T07:16:03.770Z,0
2016-12-23T07:16:44.319Z,0
2016-12-23T07:17:24.848Z,0
2016-12-23T07:18:05.390Z,0
2016-12-23T07:18:45.909Z,0
2016-12-23T07:19:26.445Z,0
2016-12-23T07:20:06.986Z,0
2016-12-23T07:20:47.520Z,0
2016-12-23T07:21:28.045Z,0
2016-12-23T07:22:08.578Z,0
2016-12-23T07:22:49.105Z,0
2016-12-23T07:23:29.640Z,0
2016-12-23T07:24:10.172Z,0
2016-12-23T07:24:50.696Z,0
2016-12-23T07:25:31.231Z,0
2016-12-23T07:26:11.759Z,0
2016-12-23T07:26:52.297Z,0
2016-12-23T07:27:32.822Z,0
2016-12-23T07:28:13.359Z,0
2016-12-23T07:28:53.901Z,0
2016-12-23T07:29:34.445Z,0
2016-12-23T07:30:14.960Z,0
2016-12-23T07:30:55.499Z,0
2016-12-23T07:31:36.039Z,0
2016-12-23T07:32:16.580Z,0
2016-12-23T07:32:57.097Z,0
2016-12-23T07:33:37.644Z,0
2016-12-23T07:34:18.184Z,0
2016-12-23T07:34:58.718Z,0
2016-12-23T07:35:39.234Z,0
2016-12-23T07:36:19.769Z,0
2016-12-23T07:37:00.293Z,0
2016-12-23T07:37:40.831Z,0
2016-12-23T07:38:21.361Z,0
2016-12-23T07:39:01.907Z,0
2016-12-23T07:39:42.443Z,4
2016-12-23T07:40:22.975Z,4
2016-12-23T07:41:03.509Z,4
2016-12-23T07:41:44.044Z,0
2016-12-23T07:42:24.572Z,0
2016-12-23T07:43:05.106Z,0
2016-12-23T07:43:45.633Z,0
2016-12-23T07:44:26.169Z,4
2016-12-23T07:45:06.713Z,4
2016-12-23T07:45:47.243Z,4
2016-12-23T07:46:27.774Z,4
2016-12-23T07:47:08.308Z,4
2016-12-23T07:47:48.843Z,4
2016-12-23T07:48:29.370Z,4
2016-12-23T07:49:09.906Z,4
2016-12-23T07:49:50.444Z,0
2016-12-23T07:50:30.976Z,0
2016-12-23T07:51:11.502Z,4
2016-12-23T07:51:52.038Z,4
2016-12-23T07:52:32.585Z,4
2016-12-23T07:53:13.298Z,4
2016-12-23T07:53:53.830Z,4
2016-12-23T07:54:34.358Z,4
2016-12-23T07:55:14.899Z,4
2016-12-23T07:55:55.423Z,4
2016-12-23T07:56:35.963Z,4
2016-12-23T07:57:16.499Z,0
2016-12-23T07:57:57.032Z,0
2016-12-23T07:58:37.564Z,4
2016-12-23T07:59:18.101Z,4
2016-12-23T07:59:58.636Z,4
2016-12-23T08:00:39.159Z,4
2016-12-23T08:01:19.692Z,4
2016-12-23T08:02:00.222Z,4
2016-12-23T08:02:40.760Z,4
2016-12-23T08:03:21.295Z,4
2016-12-23T08:04:01.823Z,4
2016-12-23T08:04:42.361Z,4
2016-12-23T08:05:22.888Z,4
2016-12-23T08:06:03.418Z,4
2016-12-23T08:06:43.951Z,4
2016-12-23T08:07:24.471Z,4
2016-12-23T08:08:05.002Z,0
2016-12-23T08:08:45.536Z,0
2016-12-23T08:09:26.065Z,12
2016-12-23T08:10:06.594Z,4
2016-12-23T08:10:47.127Z,4
2016-12-23T08:11:27.653Z,4
2016-12-23T08:12:08.182Z,4
2016-12-23T08:12:48.714Z,8
2016-12-23T08:13:29.256Z,4
2016-12-23T08:14:09.810Z,4
2016-12-23T08:14:50.344Z,4
2016-12-23T08:15:30.893Z,4
2016-12-23T08:16:11.422Z,4
2016-12-23T08:16:51.950Z,4
2016-12-23T08:17:32.481Z,4
2016-12-23T08:18:13.017Z,8
2016-12-23T08:18:53.553Z,4
2016-12-23T08:19:34.091Z,4
2016-12-23T08:20:14.607Z,8
2016-12-23T08:20:55.134Z,4
2016-12-23T08:21:35.669Z,8
2016-12-23T08:22:16.198Z,4
2016-12-23T08:22:56.729Z,4
2016-12-23T08:23:37.272Z,8
2016-12-23T08:24:17.900Z,4
2016-12-23T08:24:58.431Z,8
2016-12-23T08:25:38.959Z,4
2016-12-23T08:26:19.497Z,4
2016-12-23T08:27:00.040Z,8
2016-12-23T08:27:40.557Z,8
2016-12-23T08:28:21.096Z,8
2016-12-23T08:29:01.625Z,8
2016-12-23T08:29:42.157Z,4
2016-12-23T08:30:22.689Z,4
2016-12-23T08:31:03.222Z,4
2016-12-23T08:31:43.750Z,4
2016-12-23T08:32:24.281Z,4
2016-12-23T08:33:04.813Z,8
2016-12-23T08:33:45.337Z,8
2016-12-23T08:34:25.865Z,8
2016-12-23T08:35:06.398Z,8
2016-12-23T08:35:46.937Z,4
2016-12-23T08:36:27.461Z,4
2016-12-23T08:37:07.998Z,4
2016-12-23T08:37:48.524Z,4
2016-12-23T08:38:29.066Z,4
2016-12-23T08:39:09.593Z,4
2016-12-23T08:39:50.135Z,4
2016-12-23T08:40:30.675Z,4
2016-12-23T08:41:11.207Z,4
2016-12-23T08:41:51.743Z,8
2016-12-23T08:42:32.283Z,4
2016-12-23T08:43:12.814Z,4
2016-12-23T08:43:53.345Z,4
2016-12-23T08:44:33.878Z,4
2016-12-23T08:45:14.402Z,4
2016-12-23T08:45:54.924Z,4
2016-12-23T08:46:35.460Z,4
2016-12-23T08:47:15.993Z,4
2016-12-23T08:47:56.527Z,4
2016-12-23T08:48:37.063Z,4
2016-12-23T08:49:17.591Z,4
2016-12-23T08:49:58.121Z,4
2016-12-23T08:50:38.657Z,8
2016-12-23T08:51:19.187Z,4
2016-12-23T08:51:59.720Z,4
2016-12-23T08:52:40.248Z,8
2016-12-23T08:53:20.787Z,8
2016-12-23T08:54:01.324Z,8
2016-12-23T08:54:41.852Z,8
2016-12-23T08:55:22.375Z,8
2016-12-23T08:56:02.910Z,8
2016-12-23T08:56:43.441Z,8
2016-12-23T08:57:23.973Z,8
2016-12-23T08:58:04.510Z,8
2016-12-23T08:58:45.037Z,4
2016-12-23T08:59:25.572Z,8
2016-12-23T09:00:06.103Z,8
2016-12-23T09:00:46.640Z,8
2016-12-23T09:01:27.177Z,12
2016-12-23T09:02:07.710Z,8
2016-12-23T09:02:48.239Z,8
2016-12-23T09:03:28.774Z,8
2016-12-23T09:04:09.308Z,12
2016-12-23T09:04:49.842Z,12
2016-12-23T09:05:30.371Z,12
2016-12-23T09:06:10.906Z,12
2016-12-23T09:06:51.437Z,12
2016-12-23T09:07:31.973Z,8
2016-12-23T09:08:12.520Z,8
2016-12-23T09:08:53.061Z,12
2016-12-23T09:09:33.598Z,16
2016-12-23T09:10:14.134Z,12
2016-12-23T09:10:54.667Z,12
2016-12-23T09:11:35.204Z,16
2016-12-23T09:12:15.738Z,16
2016-12-23T09:12:56.280Z,12
2016-12-23T09:13:36.809Z,12
2016-12-23T09:14:17.344Z,8
2016-12-23T09:14:57.884Z,12
2016-12-23T09:15:38.417Z,12
2016-12-23T09:16:18.953Z,12
2016-12-23T09:16:59.467Z,8
2016-12-23T09:17:40.007Z,12
2016-12-23T09:18:20.536Z,12
2016-12-23T09:19:01.072Z,12
2016-12-23T09:19:41.598Z,16
2016-12-23T09:20:22.135Z,12
2016-12-23T09:21:02.667Z,12
2016-12-23T09:21:43.210Z,16
2016-12-23T09:22:23.739Z,12
2016-12-23T09:23:04.272Z,12
2016-12-23T09:23:44.800Z,12
2016-12-23T09:24:25.331Z,12
2016-12-23T09:25:05.865Z,12
2016-12-23T09:25:46.393Z,12
2016-12-23T09:26:26.922Z,12
2016-12-23T09:27:07.448Z,12
2016-12-23T09:27:47.986Z,16
2016-12-23T09:28:28.511Z,12
2016-12-23T09:29:09.042Z,12
2016-12-23T09:29:49.577Z,12
2016-12-23T09:30:30.111Z,12
2016-12-23T09:31:10.643Z,12
2016-12-23T09:31:51.178Z,12
2016-12-23T09:32:31.700Z,12
2016-12-23T09:33:12.242Z,12
2016-12-23T09:33:52.776Z,12
2016-12-23T09:34:33.311Z,12
2016-12-23T09:35:13.843Z,12
2016-12-23T09:35:54.367Z,16
2016-12-23T09:36:34.897Z,16
2016-12-23T09:37:15.443Z,16
2016-12-23T09:37:55.974Z,12
2016-12-23T09:38:36.500Z,16
2016-12-23T09:39:17.035Z,16
2016-12-23T09:39:57.577Z,16
2016-12-23T09:40:38.110Z,16
2016-12-23T09:41:18.639Z,16
2016-12-23T09:41:59.171Z,16
2016-12-23T09:42:39.702Z,12
2016-12-23T09:43:20.238Z,16
2016-12-23T09:44:00.773Z,16
2016-12-23T09:44:41.313Z,20
2016-12-23T09:45:21.843Z,20
2016-12-23T09:46:02.371Z,16
2016-12-23T09:46:42.901Z,16
2016-12-23T09:47:23.437Z,16
2016-12-23T09:48:03.964Z,16
2016-12-23T09:48:44.495Z,16
2016-12-23T09:49:25.022Z,16
2016-12-23T09:50:05.550Z,20
2016-12-23T09:50:46.086Z,20
2016-12-23T09:51:26.625Z,20
2016-12-23T09:52:07.145Z,20
2016-12-23T09:52:47.672Z,24
2016-12-23T09:53:28.206Z,24
2016-12-23T09:54:08.729Z,24
2016-12-23T09:54:49.256Z,24
2016-12-23T09:55:29.793Z,24
2016-12-23T09:56:10.311Z,32
2016-12-23T09:56:50.843Z,28
2016-12-23T09:57:31.381Z,28